sensor_id;sensor_type;location;lat;lon;timestamp;temperature;humidity
34201;DHT22;20469;55.638;37.670;2022-12-07T00:01:23;-7.70;1.00
34201;DHT22;20469;55.638;37.670;2022-12-07T00:03:56;-7.60;1.00
34201;DHT22;20469;55.638;37.670;2022-12-07T00:06:29;-7.60;1.00
34201;DHT22;20469;55.638;37.670;2022-12-07T00:08:58;-7.80;1.00
34201;DHT22;20469;55.638;37.670;2022-12-07T00:11:29;-7.70;1.00
34201;DHT22;20469;55.638;37.670;2022-12-07T00:14:01;-7.80;1.00
34201;DHT22;20469;55.638;37.670;2022-12-07T00:16:33;-7.70;1.00
34201;DHT22;20469;55.638;37.670;2022-12-07T00:19:04;-7.70;1.00
34201;DHT22;20469;55.638;37.670;2022-12-07T00:21:34;-7.80;1.00
34201;DHT22;20469;55.638;37.670;2022-12-07T00:24:03;-7.60;1.00
34201;DHT22;20469;55.638;37.670;2022-12-07T00:26:37;-7.70;1.00
34201;DHT22;20469;55.638;37.670;2022-12-07T00:29:07;-7.60;1.00
34201;DHT22;20469;55.638;37.670;2022-12-07T00:31:36;-7.60;1.00
34201;DHT22;20469;55.638;37.670;2022-12-07T00:34:07;-7.70;1.00
34201;DHT22;20469;55.638;37.670;2022-12-07T00:36:38;-7.70;1.00
34201;DHT22;20469;55.638;37.670;2022-12-07T00:39:05;-7.80;1.00
34201;DHT22;20469;55.638;37.670;2022-12-07T00:41:33;-7.80;1.00
34201;DHT22;20469;55.638;37.670;2022-12-07T00:44:00;-7.80;1.00
34201;DHT22;20469;55.638;37.670;2022-12-07T00:46:28;-7.80;1.00
34201;DHT22;20469;55.638;37.670;2022-12-07T00:48:56;-7.80;1.00
34201;DHT22;20469;55.638;37.670;2022-12-07T00:51:25;-7.60;1.00
34201;DHT22;20469;55.638;37.670;2022-12-07T00:53:55;-7.70;1.00
34201;DHT22;20469;55.638;37.670;2022-12-07T00:56:25;-7.70;1.00
34201;DHT22;20469;55.638;37.670;2022-12-07T00:59:01;-7.90;1.00
34201;DHT22;20469;55.638;37.670;2022-12-07T01:01:31;-7.80;1.00
34201;DHT22;20469;55.638;37.670;2022-12-07T01:04:00;-7.80;1.00
34201;DHT22;20469;55.638;37.670;2022-12-07T01:06:29;-7.80;1.00
34201;DHT22;20469;55.638;37.670;2022-12-07T01:08:57;-7.90;1.00
34201;DHT22;20469;55.638;37.670;2022-12-07T01:11:27;-7.80;1.00
34201;DHT22;20469;55.638;37.670;2022-12-07T01:13:56;-7.80;1.00
34201;DHT22;20469;55.638;37.670;2022-12-07T01:16:26;-7.90;1.00
34201;DHT22;20469;55.638;37.670;2022-12-07T01:18:55;-7.80;1.00
34201;DHT22;20469;55.638;37.670;2022-12-07T01:21:26;-7.90;1.00
34201;DHT22;20469;55.638;37.670;2022-12-07T01:23:54;-7.90;1.00
34201;DHT22;20469;55.638;37.670;2022-12-07T01:26:23;-7.90;1.00
34201;DHT22;20469;55.638;37.670;2022-12-07T01:28:51;-7.40;1.00
34201;DHT22;20469;55.638;37.670;2022-12-07T01:31:24;-7.60;1.00
34201;DHT22;20469;55.638;37.670;2022-12-07T01:33:55;-7.90;1.00
34201;DHT22;20469;55.638;37.670;2022-12-07T01:36:26;-7.90;1.00
34201;DHT22;20469;55.638;37.670;2022-12-07T01:38:56;-8.00;1.00
34201;DHT22;20469;55.638;37.670;2022-12-07T01:41:27;-7.90;1.00
34201;DHT22;20469;55.638;37.670;2022-12-07T01:44:22;-7.90;1.00
34201;DHT22;20469;55.638;37.670;2022-12-07T01:46:52;-7.90;1.00
34201;DHT22;20469;55.638;37.670;2022-12-07T01:49:35;-8.20;1.00
34201;DHT22;20469;55.638;37.670;2022-12-07T01:52:22;-7.80;1.00
34201;DHT22;20469;55.638;37.670;2022-12-07T01:54:54;-8.00;1.00
34201;DHT22;20469;55.638;37.670;2022-12-07T01:57:23;-7.90;1.00
34201;DHT22;20469;55.638;37.670;2022-12-07T01:59:52;-8.20;1.00
34201;DHT22;20469;55.638;37.670;2022-12-07T02:02:26;-8.00;1.00
34201;DHT22;20469;55.638;37.670;2022-12-07T02:04:56;-8.20;1.00
34201;DHT22;20469;55.638;37.670;2022-12-07T02:07:25;-8.20;1.00
34201;DHT22;20469;55.638;37.670;2022-12-07T02:09:54;-8.10;1.00
34201;DHT22;20469;55.638;37.670;2022-12-07T02:12:22;-8.10;1.00
34201;DHT22;20469;55.638;37.670;2022-12-07T02:15:10;-8.00;1.00
34201;DHT22;20469;55.638;37.670;2022-12-07T02:20:46;-8.00;1.00
34201;DHT22;20469;55.638;37.670;2022-12-07T02:29:21;-8.10;1.00
34201;DHT22;20469;55.638;37.670;2022-12-07T02:31:56;-8.30;1.00
34201;DHT22;20469;55.638;37.670;2022-12-07T02:34:40;-8.00;1.00
34201;DHT22;20469;55.638;37.670;2022-12-07T02:37:19;-8.10;1.00
34201;DHT22;20469;55.638;37.670;2022-12-07T02:39:54;-8.10;1.00
34201;DHT22;20469;55.638;37.670;2022-12-07T02:42:30;-8.10;1.00
34201;DHT22;20469;55.638;37.670;2022-12-07T02:44:59;-8.10;1.00
34201;DHT22;20469;55.638;37.670;2022-12-07T02:47:28;-8.20;1.00
34201;DHT22;20469;55.638;37.670;2022-12-07T02:49:57;-8.30;1.00
34201;DHT22;20469;55.638;37.670;2022-12-07T02:52:24;-8.20;1.00
34201;DHT22;20469;55.638;37.670;2022-12-07T02:54:52;-8.30;1.00
34201;DHT22;20469;55.638;37.670;2022-12-07T03:00:12;-8.40;1.00
34201;DHT22;20469;55.638;37.670;2022-12-07T03:02:50;-8.40;1.00
34201;DHT22;20469;55.638;37.670;2022-12-07T03:11:21;-8.40;1.00
34201;DHT22;20469;55.638;37.670;2022-12-07T03:14:06;-8.40;1.00
34201;DHT22;20469;55.638;37.670;2022-12-07T03:16:41;-8.50;1.00
34201;DHT22;20469;55.638;37.670;2022-12-07T03:19:15;-8.60;1.00
34201;DHT22;20469;55.638;37.670;2022-12-07T03:21:51;-8.50;1.00
34201;DHT22;20469;55.638;37.670;2022-12-07T03:24:24;-8.50;1.00
34201;DHT22;20469;55.638;37.670;2022-12-07T03:27:01;-8.50;1.00
34201;DHT22;20469;55.638;37.670;2022-12-07T03:29:34;-8.60;1.00
34201;DHT22;20469;55.638;37.670;2022-12-07T03:32:12;-8.60;1.00
34201;DHT22;20469;55.638;37.670;2022-12-07T03:34:58;-8.60;1.00
34201;DHT22;20469;55.638;37.670;2022-12-07T03:37:36;-8.70;1.00
34201;DHT22;20469;55.638;37.670;2022-12-07T03:40:21;-8.70;1.00
34201;DHT22;20469;55.638;37.670;2022-12-07T03:42:50;-8.60;1.00
34201;DHT22;20469;55.638;37.670;2022-12-07T03:45:23;-8.60;1.00
34201;DHT22;20469;55.638;37.670;2022-12-07T03:48:05;-8.60;1.00
34201;DHT22;20469;55.638;37.670;2022-12-07T03:50:43;-8.60;1.00
34201;DHT22;20469;55.638;37.670;2022-12-07T03:53:20;-8.70;1.00
34201;DHT22;20469;55.638;37.670;2022-12-07T03:55:50;-8.60;1.00
34201;DHT22;20469;55.638;37.670;2022-12-07T03:58:21;-8.60;1.00
34201;DHT22;20469;55.638;37.670;2022-12-07T04:00:50;-8.50;1.00
34201;DHT22;20469;55.638;37.670;2022-12-07T04:03:22;-8.60;1.00
34201;DHT22;20469;55.638;37.670;2022-12-07T04:05:49;-8.60;1.00
34201;DHT22;20469;55.638;37.670;2022-12-07T04:08:17;-8.60;1.00
34201;DHT22;20469;55.638;37.670;2022-12-07T04:10:44;-8.60;1.00
34201;DHT22;20469;55.638;37.670;2022-12-07T04:13:15;-8.60;1.00
34201;DHT22;20469;55.638;37.670;2022-12-07T04:15:42;-8.60;1.00
34201;DHT22;20469;55.638;37.670;2022-12-07T04:18:10;-8.60;1.00
34201;DHT22;20469;55.638;37.670;2022-12-07T04:20:37;-8.60;1.00
34201;DHT22;20469;55.638;37.670;2022-12-07T04:23:05;-8.70;1.00
34201;DHT22;20469;55.638;37.670;2022-12-07T04:25:32;-8.60;1.00
34201;DHT22;20469;55.638;37.670;2022-12-07T04:28:00;-9.30;1.00
34201;DHT22;20469;55.638;37.670;2022-12-07T04:30:27;-8.60;1.00
34201;DHT22;20469;55.638;37.670;2022-12-07T04:32:55;-8.60;1.00
34201;DHT22;20469;55.638;37.670;2022-12-07T04:35:22;-8.60;1.00
34201;DHT22;20469;55.638;37.670;2022-12-07T04:37:50;-8.70;1.00
34201;DHT22;20469;55.638;37.670;2022-12-07T04:40:17;-8.60;1.00
34201;DHT22;20469;55.638;37.670;2022-12-07T04:42:45;-8.80;1.00
34201;DHT22;20469;55.638;37.670;2022-12-07T04:45:12;-8.70;1.00
34201;DHT22;20469;55.638;37.670;2022-12-07T04:47:39;-8.70;1.00
34201;DHT22;20469;55.638;37.670;2022-12-07T04:50:09;-8.80;1.00
34201;DHT22;20469;55.638;37.670;2022-12-07T04:52:36;-8.80;1.00
34201;DHT22;20469;55.638;37.670;2022-12-07T04:55:04;-8.80;1.00
34201;DHT22;20469;55.638;37.670;2022-12-07T04:57:32;-8.80;1.00
34201;DHT22;20469;55.638;37.670;2022-12-07T04:59:59;-8.80;1.00
34201;DHT22;20469;55.638;37.670;2022-12-07T05:02:29;-8.70;1.00
34201;DHT22;20469;55.638;37.670;2022-12-07T05:04:57;-8.90;1.00
34201;DHT22;20469;55.638;37.670;2022-12-07T05:07:25;-8.90;1.00
34201;DHT22;20469;55.638;37.670;2022-12-07T05:09:52;-8.70;1.00
34201;DHT22;20469;55.638;37.670;2022-12-07T05:12:20;-8.80;1.00
34201;DHT22;20469;55.638;37.670;2022-12-07T05:14:47;-8.80;1.00
34201;DHT22;20469;55.638;37.670;2022-12-07T05:17:14;-8.80;1.00
34201;DHT22;20469;55.638;37.670;2022-12-07T05:19:42;-8.90;1.00
34201;DHT22;20469;55.638;37.670;2022-12-07T05:22:09;-8.90;1.00
34201;DHT22;20469;55.638;37.670;2022-12-07T05:24:37;-8.90;1.00
34201;DHT22;20469;55.638;37.670;2022-12-07T05:27:05;-8.90;1.00
34201;DHT22;20469;55.638;37.670;2022-12-07T05:29:33;-9.00;1.00
34201;DHT22;20469;55.638;37.670;2022-12-07T05:32:03;-9.00;1.00
34201;DHT22;20469;55.638;37.670;2022-12-07T05:34:33;-9.00;1.00
34201;DHT22;20469;55.638;37.670;2022-12-07T05:37:04;-9.00;1.00
34201;DHT22;20469;55.638;37.670;2022-12-07T05:39:35;-9.00;1.00
34201;DHT22;20469;55.638;37.670;2022-12-07T05:42:06;-9.00;1.00
34201;DHT22;20469;55.638;37.670;2022-12-07T05:44:44;-9.00;1.00
34201;DHT22;20469;55.638;37.670;2022-12-07T05:47:15;-9.00;1.00
34201;DHT22;20469;55.638;37.670;2022-12-07T05:49:46;-9.10;1.00
34201;DHT22;20469;55.638;37.670;2022-12-07T05:52:14;-9.10;1.00
34201;DHT22;20469;55.638;37.670;2022-12-07T05:54:41;-9.00;1.00
34201;DHT22;20469;55.638;37.670;2022-12-07T05:57:09;-7.90;1.00
34201;DHT22;20469;55.638;37.670;2022-12-07T05:59:37;-9.00;1.00
34201;DHT22;20469;55.638;37.670;2022-12-07T06:02:09;-9.00;1.00
34201;DHT22;20469;55.638;37.670;2022-12-07T06:04:39;-9.10;1.00
34201;DHT22;20469;55.638;37.670;2022-12-07T06:07:08;-9.00;1.00
34201;DHT22;20469;55.638;37.670;2022-12-07T06:09:35;-9.10;1.00
34201;DHT22;20469;55.638;37.670;2022-12-07T06:12:03;-8.90;1.00
34201;DHT22;20469;55.638;37.670;2022-12-07T06:14:46;-9.00;1.00
34201;DHT22;20469;55.638;37.670;2022-12-07T06:17:14;-9.00;1.00
34201;DHT22;20469;55.638;37.670;2022-12-07T06:19:42;-9.00;1.00
34201;DHT22;20469;55.638;37.670;2022-12-07T06:22:10;-8.90;1.00
34201;DHT22;20469;55.638;37.670;2022-12-07T06:24:39;-9.00;1.00
34201;DHT22;20469;55.638;37.670;2022-12-07T06:27:09;-9.00;1.00
34201;DHT22;20469;55.638;37.670;2022-12-07T06:29:37;-9.00;1.00
34201;DHT22;20469;55.638;37.670;2022-12-07T06:32:05;-9.10;1.00
34201;DHT22;20469;55.638;37.670;2022-12-07T06:34:32;-8.90;1.00
34201;DHT22;20469;55.638;37.670;2022-12-07T06:37:00;-9.00;1.00
34201;DHT22;20469;55.638;37.670;2022-12-07T06:39:28;-8.90;1.00
34201;DHT22;20469;55.638;37.670;2022-12-07T06:41:56;-8.80;1.00
34201;DHT22;20469;55.638;37.670;2022-12-07T06:44:25;-8.80;1.00
34201;DHT22;20469;55.638;37.670;2022-12-07T06:46:53;-8.70;1.00
34201;DHT22;20469;55.638;37.670;2022-12-07T06:49:41;-8.80;1.00
34201;DHT22;20469;55.638;37.670;2022-12-07T06:52:09;-8.90;1.00
34201;DHT22;20469;55.638;37.670;2022-12-07T06:54:36;-8.80;1.00
34201;DHT22;20469;55.638;37.670;2022-12-07T06:57:04;-8.70;1.00
34201;DHT22;20469;55.638;37.670;2022-12-07T06:59:33;-8.70;1.00
34201;DHT22;20469;55.638;37.670;2022-12-07T07:02:01;-8.80;1.00
34201;DHT22;20469;55.638;37.670;2022-12-07T07:04:30;-8.70;1.00
34201;DHT22;20469;55.638;37.670;2022-12-07T07:07:01;-8.70;1.00
34201;DHT22;20469;55.638;37.670;2022-12-07T07:09:31;-8.70;1.00
34201;DHT22;20469;55.638;37.670;2022-12-07T07:12:01;-8.60;1.00
34201;DHT22;20469;55.638;37.670;2022-12-07T07:14:30;-8.80;1.00
34201;DHT22;20469;55.638;37.670;2022-12-07T07:16:57;-8.70;1.00
34201;DHT22;20469;55.638;37.670;2022-12-07T07:19:25;-8.80;1.00
34201;DHT22;20469;55.638;37.670;2022-12-07T07:21:52;-8.80;1.00
34201;DHT22;20469;55.638;37.670;2022-12-07T07:24:20;-8.70;1.00
34201;DHT22;20469;55.638;37.670;2022-12-07T07:26:47;-8.70;1.00
34201;DHT22;20469;55.638;37.670;2022-12-07T07:29:15;-8.70;1.00
34201;DHT22;20469;55.638;37.670;2022-12-07T07:31:45;-8.80;1.00
34201;DHT22;20469;55.638;37.670;2022-12-07T07:34:12;-8.70;1.00
34201;DHT22;20469;55.638;37.670;2022-12-07T07:36:41;-8.70;1.00
34201;DHT22;20469;55.638;37.670;2022-12-07T07:39:09;-8.80;1.00
34201;DHT22;20469;55.638;37.670;2022-12-07T07:41:39;-8.70;1.00
34201;DHT22;20469;55.638;37.670;2022-12-07T07:44:07;-8.60;1.00
34201;DHT22;20469;55.638;37.670;2022-12-07T07:46:34;-8.60;1.00
34201;DHT22;20469;55.638;37.670;2022-12-07T07:49:03;-8.60;1.00
34201;DHT22;20469;55.638;37.670;2022-12-07T07:51:31;-8.50;1.00
34201;DHT22;20469;55.638;37.670;2022-12-07T07:53:58;-8.60;1.00
34201;DHT22;20469;55.638;37.670;2022-12-07T07:56:25;-8.50;1.00
34201;DHT22;20469;55.638;37.670;2022-12-07T07:58:53;-8.50;1.00
34201;DHT22;20469;55.638;37.670;2022-12-07T08:01:21;-8.50;1.00
34201;DHT22;20469;55.638;37.670;2022-12-07T08:03:49;-8.40;1.00
34201;DHT22;20469;55.638;37.670;2022-12-07T08:06:17;-8.40;1.00
34201;DHT22;20469;55.638;37.670;2022-12-07T08:08:44;-8.50;1.00
34201;DHT22;20469;55.638;37.670;2022-12-07T08:11:12;-8.30;1.00
34201;DHT22;20469;55.638;37.670;2022-12-07T08:13:39;-8.30;1.00
34201;DHT22;20469;55.638;37.670;2022-12-07T08:16:09;-8.30;1.00
34201;DHT22;20469;55.638;37.670;2022-12-07T08:18:39;-8.20;1.00
34201;DHT22;20469;55.638;37.670;2022-12-07T08:21:09;-8.20;1.00
34201;DHT22;20469;55.638;37.670;2022-12-07T08:23:37;-8.20;1.00
34201;DHT22;20469;55.638;37.670;2022-12-07T08:26:08;-8.10;1.00
34201;DHT22;20469;55.638;37.670;2022-12-07T08:28:37;-8.10;1.00
34201;DHT22;20469;55.638;37.670;2022-12-07T08:31:12;-8.00;1.00
34201;DHT22;20469;55.638;37.670;2022-12-07T08:33:41;-7.90;1.00
34201;DHT22;20469;55.638;37.670;2022-12-07T08:36:10;-7.40;1.00
34201;DHT22;20469;55.638;37.670;2022-12-07T08:38:40;-7.90;1.00
34201;DHT22;20469;55.638;37.670;2022-12-07T08:41:22;-7.80;1.00
34201;DHT22;20469;55.638;37.670;2022-12-07T08:43:51;-7.70;1.00
34201;DHT22;20469;55.638;37.670;2022-12-07T08:46:26;-7.60;1.00
34201;DHT22;20469;55.638;37.670;2022-12-07T08:49:09;-7.50;1.00
34201;DHT22;20469;55.638;37.670;2022-12-07T08:51:39;-7.50;1.00
34201;DHT22;20469;55.638;37.670;2022-12-07T08:54:11;-7.40;1.00
34201;DHT22;20469;55.638;37.670;2022-12-07T08:56:41;-7.30;1.00
34201;DHT22;20469;55.638;37.670;2022-12-07T08:59:09;-7.30;1.00
34201;DHT22;20469;55.638;37.670;2022-12-07T09:01:36;-7.30;1.00
34201;DHT22;20469;55.638;37.670;2022-12-07T09:04:04;-7.80;1.00
34201;DHT22;20469;55.638;37.670;2022-12-07T09:06:32;-7.40;1.00
34201;DHT22;20469;55.638;37.670;2022-12-07T09:09:01;-7.30;1.00
34201;DHT22;20469;55.638;37.670;2022-12-07T09:11:29;-7.30;1.00
34201;DHT22;20469;55.638;37.670;2022-12-07T09:13:56;-7.30;1.00
34201;DHT22;20469;55.638;37.670;2022-12-07T09:16:24;-7.20;1.00
34201;DHT22;20469;55.638;37.670;2022-12-07T09:18:52;-7.20;1.00
34201;DHT22;20469;55.638;37.670;2022-12-07T09:21:19;-7.10;1.00
34201;DHT22;20469;55.638;37.670;2022-12-07T09:23:52;-7.10;1.00
34201;DHT22;20469;55.638;37.670;2022-12-07T09:26:20;-7.10;1.00
34201;DHT22;20469;55.638;37.670;2022-12-07T09:28:47;-7.10;1.00
34201;DHT22;20469;55.638;37.670;2022-12-07T09:31:15;-7.00;1.00
34201;DHT22;20469;55.638;37.670;2022-12-07T09:34:00;-6.50;1.00
34201;DHT22;20469;55.638;37.670;2022-12-07T09:36:28;-6.90;1.00
34201;DHT22;20469;55.638;37.670;2022-12-07T09:38:56;-6.90;1.00
34201;DHT22;20469;55.638;37.670;2022-12-07T09:41:25;-6.80;1.00
34201;DHT22;20469;55.638;37.670;2022-12-07T09:43:56;-6.90;1.00
34201;DHT22;20469;55.638;37.670;2022-12-07T09:46:27;-6.90;1.00
34201;DHT22;20469;55.638;37.670;2022-12-07T09:48:58;-6.80;1.00
34201;DHT22;20469;55.638;37.670;2022-12-07T09:51:25;-6.70;1.00
34201;DHT22;20469;55.638;37.670;2022-12-07T09:53:55;-6.80;1.00
34201;DHT22;20469;55.638;37.670;2022-12-07T09:56:24;-6.80;1.00
34201;DHT22;20469;55.638;37.670;2022-12-07T09:58:58;-6.80;1.00
34201;DHT22;20469;55.638;37.670;2022-12-07T10:01:30;-6.60;1.00
34201;DHT22;20469;55.638;37.670;2022-12-07T10:06:52;-7.20;1.00
34201;DHT22;20469;55.638;37.670;2022-12-07T10:09:21;-6.90;1.00
34201;DHT22;20469;55.638;37.670;2022-12-07T10:12:07;-6.80;1.00
34201;DHT22;20469;55.638;37.670;2022-12-07T10:14:39;-6.70;1.00
34201;DHT22;20469;55.638;37.670;2022-12-07T10:17:47;-6.80;1.00
34201;DHT22;20469;55.638;37.670;2022-12-07T10:20:22;-6.70;1.00
34201;DHT22;20469;55.638;37.670;2022-12-07T10:23:01;-6.60;1.00
34201;DHT22;20469;55.638;37.670;2022-12-07T10:25:32;-6.10;1.00
34201;DHT22;20469;55.638;37.670;2022-12-07T10:28:03;-3.20;1.00
34201;DHT22;20469;55.638;37.670;2022-12-07T10:30:53;-2.00;1.00
34201;DHT22;20469;55.638;37.670;2022-12-07T10:36:23;-0.40;1.00
34201;DHT22;20469;55.638;37.670;2022-12-07T10:39:03;-0.40;1.00
34201;DHT22;20469;55.638;37.670;2022-12-07T10:41:32;-1.70;1.00
34201;DHT22;20469;55.638;37.670;2022-12-07T10:44:00;-2.90;1.00
34201;DHT22;20469;55.638;37.670;2022-12-07T10:46:43;-2.80;1.00
34201;DHT22;20469;55.638;37.670;2022-12-07T10:52:37;-5.30;1.00
34201;DHT22;20469;55.638;37.670;2022-12-07T10:55:20;-4.60;1.00
34201;DHT22;20469;55.638;37.670;2022-12-07T11:00:46;-5.50;1.00
34201;DHT22;20469;55.638;37.670;2022-12-07T11:03:37;-6.40;1.00
34201;DHT22;20469;55.638;37.670;2022-12-07T11:09:19;-6.70;1.00
34201;DHT22;20469;55.638;37.670;2022-12-07T11:12:36;-6.60;1.00
34201;DHT22;20469;55.638;37.670;2022-12-07T11:15:24;-6.50;1.00
34201;DHT22;20469;55.638;37.670;2022-12-07T11:18:03;-6.80;1.00
34201;DHT22;20469;55.638;37.670;2022-12-07T11:20:39;-6.80;1.00
34201;DHT22;20469;55.638;37.670;2022-12-07T11:23:17;-7.30;1.00
34201;DHT22;20469;55.638;37.670;2022-12-07T11:25:54;-6.80;1.00
34201;DHT22;20469;55.638;37.670;2022-12-07T11:31:29;-6.80;1.00
34201;DHT22;20469;55.638;37.670;2022-12-07T11:34:11;-6.80;1.00
34201;DHT22;20469;55.638;37.670;2022-12-07T11:36:45;-6.80;1.00
34201;DHT22;20469;55.638;37.670;2022-12-07T11:39:38;-6.80;1.00
34201;DHT22;20469;55.638;37.670;2022-12-07T11:42:12;-6.90;1.00
34201;DHT22;20469;55.638;37.670;2022-12-07T11:44:53;-7.00;1.00
34201;DHT22;20469;55.638;37.670;2022-12-07T11:47:34;-6.90;1.00
34201;DHT22;20469;55.638;37.670;2022-12-07T11:53:33;-6.80;1.00
34201;DHT22;20469;55.638;37.670;2022-12-07T11:56:13;-6.90;1.00
34201;DHT22;20469;55.638;37.670;2022-12-07T12:01:52;-7.00;1.00
34201;DHT22;20469;55.638;37.670;2022-12-07T12:07:16;-7.00;1.00
34201;DHT22;20469;55.638;37.670;2022-12-07T12:10:14;-7.00;1.00
34201;DHT22;20469;55.638;37.670;2022-12-07T12:19:18;-7.10;1.00
34201;DHT22;20469;55.638;37.670;2022-12-07T12:21:48;-7.20;1.00
34201;DHT22;20469;55.638;37.670;2022-12-07T12:24:27;-7.20;1.00
34201;DHT22;20469;55.638;37.670;2022-12-07T12:27:06;-7.20;1.00
34201;DHT22;20469;55.638;37.670;2022-12-07T12:29:38;-7.20;1.00
34201;DHT22;20469;55.638;37.670;2022-12-07T12:32:14;-7.20;1.00
34201;DHT22;20469;55.638;37.670;2022-12-07T12:35:00;-7.20;1.00
34201;DHT22;20469;55.638;37.670;2022-12-07T12:37:45;-7.20;1.00
34201;DHT22;20469;55.638;37.670;2022-12-07T12:40:38;-7.20;1.00
34201;DHT22;20469;55.638;37.670;2022-12-07T12:43:47;-7.20;1.00
34201;DHT22;20469;55.638;37.670;2022-12-07T12:46:36;-7.30;1.00
34201;DHT22;20469;55.638;37.670;2022-12-07T12:55:18;-7.40;1.00
34201;DHT22;20469;55.638;37.670;2022-12-07T13:03:54;-7.50;1.00
34201;DHT22;20469;55.638;37.670;2022-12-07T13:06:35;-7.50;1.00
34201;DHT22;20469;55.638;37.670;2022-12-07T13:09:18;-7.60;1.00
34201;DHT22;20469;55.638;37.670;2022-12-07T13:11:49;-7.50;1.00
34201;DHT22;20469;55.638;37.670;2022-12-07T13:17:54;-7.60;1.00
34201;DHT22;20469;55.638;37.670;2022-12-07T13:20:47;-7.50;1.00
34201;DHT22;20469;55.638;37.670;2022-12-07T13:23:19;-7.50;1.00
34201;DHT22;20469;55.638;37.670;2022-12-07T13:25:56;-7.60;1.00
34201;DHT22;20469;55.638;37.670;2022-12-07T13:28:33;-7.60;1.00
34201;DHT22;20469;55.638;37.670;2022-12-07T13:31:20;-7.60;1.00
34201;DHT22;20469;55.638;37.670;2022-12-07T13:33:52;-7.60;1.00
34201;DHT22;20469;55.638;37.670;2022-12-07T13:36:26;-7.70;1.00
34201;DHT22;20469;55.638;37.670;2022-12-07T13:38:58;-7.70;1.00
34201;DHT22;20469;55.638;37.670;2022-12-07T13:41:29;-7.70;1.00
34201;DHT22;20469;55.638;37.670;2022-12-07T13:44:13;-7.70;1.00
34201;DHT22;20469;55.638;37.670;2022-12-07T13:49:38;-7.80;1.00
34201;DHT22;20469;55.638;37.670;2022-12-07T13:52:24;-7.70;1.00
34201;DHT22;20469;55.638;37.670;2022-12-07T13:55:01;-7.10;1.00
34201;DHT22;20469;55.638;37.670;2022-12-07T13:57:32;-7.90;1.00
34201;DHT22;20469;55.638;37.670;2022-12-07T14:00:06;-7.90;1.00
34201;DHT22;20469;55.638;37.670;2022-12-07T14:02:58;-7.90;1.00
34201;DHT22;20469;55.638;37.670;2022-12-07T14:05:31;-7.90;1.00
34201;DHT22;20469;55.638;37.670;2022-12-07T14:08:04;-7.90;1.00
34201;DHT22;20469;55.638;37.670;2022-12-07T14:10:40;-7.90;1.00
34201;DHT22;20469;55.638;37.670;2022-12-07T14:13:30;-7.90;1.00
34201;DHT22;20469;55.638;37.670;2022-12-07T14:16:00;-7.90;1.00
34201;DHT22;20469;55.638;37.670;2022-12-07T14:18:36;-7.90;1.00
34201;DHT22;20469;55.638;37.670;2022-12-07T14:21:16;-8.00;1.00
34201;DHT22;20469;55.638;37.670;2022-12-07T14:24:10;-7.90;1.00
34201;DHT22;20469;55.638;37.670;2022-12-07T14:26:40;-8.10;1.00
34201;DHT22;20469;55.638;37.670;2022-12-07T14:29:29;-8.10;1.00
34201;DHT22;20469;55.638;37.670;2022-12-07T14:32:17;-8.10;1.00
34201;DHT22;20469;55.638;37.670;2022-12-07T14:35:08;-8.10;1.00
34201;DHT22;20469;55.638;37.670;2022-12-07T14:37:41;-8.10;1.00
34201;DHT22;20469;55.638;37.670;2022-12-07T14:40:18;-8.10;1.00
34201;DHT22;20469;55.638;37.670;2022-12-07T14:42:50;-8.20;1.00
34201;DHT22;20469;55.638;37.670;2022-12-07T14:45:21;-8.20;1.00
34201;DHT22;20469;55.638;37.670;2022-12-07T14:47:51;-8.20;1.00
34201;DHT22;20469;55.638;37.670;2022-12-07T14:50:44;-8.20;1.00
34201;DHT22;20469;55.638;37.670;2022-12-07T14:53:39;-8.20;1.00
34201;DHT22;20469;55.638;37.670;2022-12-07T14:56:09;-8.20;1.00
34201;DHT22;20469;55.638;37.670;2022-12-07T14:58:38;-8.20;1.00
34201;DHT22;20469;55.638;37.670;2022-12-07T15:01:08;-8.20;1.00
34201;DHT22;20469;55.638;37.670;2022-12-07T15:03:36;-8.20;1.00
34201;DHT22;20469;55.638;37.670;2022-12-07T15:06:07;-8.20;1.00
34201;DHT22;20469;55.638;37.670;2022-12-07T15:08:36;-8.10;1.00
34201;DHT22;20469;55.638;37.670;2022-12-07T15:11:05;-8.20;1.00
34201;DHT22;20469;55.638;37.670;2022-12-07T15:13:38;-8.20;1.00
34201;DHT22;20469;55.638;37.670;2022-12-07T15:16:24;-8.20;1.00
34201;DHT22;20469;55.638;37.670;2022-12-07T15:19:18;-8.20;1.00
34201;DHT22;20469;55.638;37.670;2022-12-07T15:21:56;-8.30;1.00
34201;DHT22;20469;55.638;37.670;2022-12-07T15:24:25;-8.30;1.00
34201;DHT22;20469;55.638;37.670;2022-12-07T15:26:53;-8.20;1.00
34201;DHT22;20469;55.638;37.670;2022-12-07T15:29:24;-8.20;1.00
34201;DHT22;20469;55.638;37.670;2022-12-07T15:31:51;-8.30;1.00
34201;DHT22;20469;55.638;37.670;2022-12-07T15:34:24;-8.30;1.00
34201;DHT22;20469;55.638;37.670;2022-12-07T15:36:54;-8.30;1.00
34201;DHT22;20469;55.638;37.670;2022-12-07T15:39:22;-8.20;1.00
34201;DHT22;20469;55.638;37.670;2022-12-07T15:41:53;-8.30;1.00
34201;DHT22;20469;55.638;37.670;2022-12-07T15:44:25;-8.30;1.00
34201;DHT22;20469;55.638;37.670;2022-12-07T15:47:10;-8.30;1.00
34201;DHT22;20469;55.638;37.670;2022-12-07T15:49:39;-8.30;1.00
34201;DHT22;20469;55.638;37.670;2022-12-07T15:52:10;-8.30;1.00
34201;DHT22;20469;55.638;37.670;2022-12-07T15:54:40;-8.30;1.00
34201;DHT22;20469;55.638;37.670;2022-12-07T15:57:09;-8.30;1.00
34201;DHT22;20469;55.638;37.670;2022-12-07T15:59:40;-8.30;1.00
34201;DHT22;20469;55.638;37.670;2022-12-07T16:02:10;-8.30;1.00
34201;DHT22;20469;55.638;37.670;2022-12-07T16:04:41;-8.30;1.00
34201;DHT22;20469;55.638;37.670;2022-12-07T16:07:11;-8.20;1.00
34201;DHT22;20469;55.638;37.670;2022-12-07T16:09:43;-8.20;1.00
34201;DHT22;20469;55.638;37.670;2022-12-07T16:12:13;-8.30;1.00
34201;DHT22;20469;55.638;37.670;2022-12-07T16:14:45;-8.20;1.00
34201;DHT22;20469;55.638;37.670;2022-12-07T16:17:14;-8.20;1.00
34201;DHT22;20469;55.638;37.670;2022-12-07T16:19:45;-8.20;1.00
34201;DHT22;20469;55.638;37.670;2022-12-07T16:22:14;-8.20;1.00
34201;DHT22;20469;55.638;37.670;2022-12-07T16:24:41;-8.30;1.00
34201;DHT22;20469;55.638;37.670;2022-12-07T16:27:09;-8.20;1.00
34201;DHT22;20469;55.638;37.670;2022-12-07T16:29:37;-8.10;1.00
34201;DHT22;20469;55.638;37.670;2022-12-07T16:32:04;-8.30;1.00
34201;DHT22;20469;55.638;37.670;2022-12-07T16:34:32;-8.30;1.00
34201;DHT22;20469;55.638;37.670;2022-12-07T16:36:59;-8.30;1.00
34201;DHT22;20469;55.638;37.670;2022-12-07T16:39:31;-8.30;1.00
34201;DHT22;20469;55.638;37.670;2022-12-07T16:41:58;-8.30;1.00
34201;DHT22;20469;55.638;37.670;2022-12-07T16:44:26;-8.20;1.00
34201;DHT22;20469;55.638;37.670;2022-12-07T16:46:56;-8.30;1.00
34201;DHT22;20469;55.638;37.670;2022-12-07T16:49:25;-8.10;1.00
34201;DHT22;20469;55.638;37.670;2022-12-07T16:51:53;-8.30;1.00
34201;DHT22;20469;55.638;37.670;2022-12-07T16:54:40;-8.30;1.00
34201;DHT22;20469;55.638;37.670;2022-12-07T16:57:08;-8.30;1.00
34201;DHT22;20469;55.638;37.670;2022-12-07T16:59:36;-8.30;1.00
34201;DHT22;20469;55.638;37.670;2022-12-07T17:02:03;-8.40;1.00
34201;DHT22;20469;55.638;37.670;2022-12-07T17:04:31;-8.30;1.00
34201;DHT22;20469;55.638;37.670;2022-12-07T17:06:58;-8.20;1.00
34201;DHT22;20469;55.638;37.670;2022-12-07T17:09:27;-8.10;1.00
34201;DHT22;20469;55.638;37.670;2022-12-07T17:11:58;-8.30;1.00
34201;DHT22;20469;55.638;37.670;2022-12-07T17:14:25;-8.10;1.00